Roaring Springs, TX (79256)

6:53 PM CDT on August 04, 2015 (GMT -0500)
WT_Meso | | Change Station
CLOSE
Current Station
Personal Weather Station
Location: Roaring Springs, TX
Elevation: 2615 ft
Nearby Weather Stations

Elev 2615 ft 33.94 °N, 100.85 °W | Updated 18 minutes ago

Partly Cloudy
Partly Cloudy
90 °F
Feels Like 94 °F
N
8
Wind Variable Wind from South
Gusts 13.0 mph

Today
High -- | Low -- °F
--% Chance of Precip.
Yesterday
High -- | Low -- °F
Precip. -- in
6:57 AM 8:41 PM
Waning Gibbous, 73% visible
Pressure 29.81 in
Visibility 10.0 miles
Clouds Few 6000 ft
Heat Index 94 °F
Dew Point 68 °F
Humidity 49%
Rainfall in
Snow Depth Not available.
UV 3 out of 12
Pollen 4.50 out of 12
Air Quality Not available.
Flu Activity Not available.
METAR KCDS 042253Z AUTO 20012KT 10SM FEW060 34/19 A2989 RMK AO2 SLP092 T03440194

More Conditions Fewer Conditions

Pressure 29.81 in
Visibility 10.0 miles
Clouds Few 6000 ft
Heat Index 94 °F
Dew Point 68 °F
Humidity 49%
Rainfall in
Snow Depth Not available.
UV 3 out of 12
Pollen 4.50 out of 12
Air Quality Not available.
Flu Activity Not available.
METAR KCDS 042253Z AUTO 20012KT 10SM FEW060 34/19 A2989 RMK AO2 SLP092 T03440194

More Conditions Fewer Conditions

10-Day Weather Forecast

×

Almanac

Astronomy

Aug. 04, 2015 Rise Set
Actual Time
Civil Twilight
Nautical Twilight
Astronomical Twilight
Moon
Length of Visible Light
Length of Day
Tomorrow will be .
, % of the Moon is Illuminated

Today's Extremes

State Highs State Lows

Community

WunderPhotos

Upload Photos

1,844,023 photos uploaded!

WunderBlogs® & News

Nearby

Air Quality

  Air Quality AQ Index Pollutant
Not available.

Snow Depth

Station Depth Elevation

Earthquake Activity

City Distance Mag. Time & Date
Minimum magnitude displayed is 2.5.

Coastal Water Temperatures

Place Temperature

Stations

Nearby Weather Stations

Station Location Temp. Windchill Dew Point Humidity Wind Precip. Elev Updated Type